PST,Max TemperatureF,Mean TemperatureF,Min TemperatureF,Max Dew PointF,MeanDew PointF,Min DewpointF,Max Humidity, Mean Humidity, Min Humidity, Max Sea Level PressureIn, Mean Sea Level PressureIn, Min Sea Level PressureIn, Max VisibilityMiles, Mean VisibilityMiles, Min VisibilityMiles, Max Wind SpeedMPH, Mean Wind SpeedMPH, Max Gust SpeedMPH,PrecipitationIn, CloudCover, Events, WindDirDegrees
2012-2-1,45,41,36,39,33,27,100,77,53,30.36,30.09,29.97,10,9,5,23,7,31,0.09,7,Rain,234
2012-2-2,47,38,29,33,28,25,85,67,49,30.51,30.45,30.37,10,10,10,7,2,26,0.00,1,,140
2012-2-3,47,37,26,31,28,24,92,71,49,30.46,30.38,30.31,10,10,10,6,3,,0.00,0,,134
2012-2-4,48,37,25,31,28,24,92,71,50,30.46,30.37,30.30,10,10,10,12,3,18,0.00,0,,109
2012-2-5,46,36,26,30,27,24,92,73,53,30.42,30.34,30.26,10,10,8,7,2,17,0.00,0,,189
2012-2-6,47,35,22,30,26,22,92,71,49,30.30,30.23,30.17,10,10,10,10,3,13,0.00,0,,157
2012-2-7,52,41,30,30,27,25,78,57,36,30.17,30.11,30.04,10,10,10,24,3,25,0.00,0,,123
2012-2-8,41,36,30,31,28,25,92,78,64,30.36,30.28,30.13,10,10,9,25,1,28,T,6,,296
2012-2-9,45,40,34,40,36,30,100,88,76,30.41,30.34,30.22,10,8,2,7,1,8,0.02,8,Rain,312
2012-2-10,54,46,38,42,39,37,100,83,66,30.21,30.11,30.03,10,8,1,14,5,18,T,4,Rain,103
2012-2-11,42,41,39,40,39,37,100,91,82,30.13,30.08,30.03,10,8,1,6,1,7,0.07,8,Rain,222
2012-2-12,50,41,32,40,38,30,100,78,56,30.10,30.01,29.87,10,4,0,7,2,9,0.00,7,Fog,103
2012-2-13,40,35,30,36,33,29,96,88,79,30.00,29.95,29.88,10,10,9,7,1,7,0.00,8,,160
2012-2-14,47,41,34,36,33,28,100,79,57,30.08,29.94,29.85,10,10,3,16,3,30,0.01,8,Rain,275
2012-2-15,44,36,28,32,30,25,89,73,57,30.41,30.25,30.10,10,10,10,13,5,22,0.00,7,,230
2012-2-16,43,35,26,32,28,25,92,76,60,30.40,30.31,30.23,10,10,10,16,5,20,T,5,,107
2012-2-17,53,45,36,37,35,32,92,69,46,30.31,30.15,29.89,10,10,5,13,4,16,0.04,4,Rain,99
2012-2-18,47,42,37,39,29,23,76,59,42,30.06,30.01,29.95,10,10,3,23,9,30,0.09,6,Rain,196
2012-2-19,45,39,33,34,28,22,92,69,45,30.03,30.00,29.96,10,10,7,13,4,15,0.02,6,Rain,132
2012-2-20,45,38,31,37,32,23,92,73,53,30.05,29.99,29.91,10,10,10,18,4,21,0.04,7,Rain,41
2012-2-21,58,48,37,45,40,36,100,80,59,30.03,29.97,29.88,10,7,0,25,4,35,0.27,8,Fog-Rain,14
2012-2-22,58,49,40,43,35,23,71,52,33,30.13,29.89,29.77,10,9,2,43,22,56,0.03,5,Rain,267
2012-2-23,49,42,34,27,24,21,64,51,37,30.30,30.26,30.15,10,10,10,17,5,23,0.00,4,,238
2012-2-24,55,43,31,37,28,23,75,57,38,30.30,29.99,29.59,10,10,9,20,5,29,T,5,Rain,92
2012-2-25,46,41,36,39,30,21,82,63,43,30.13,29.83,29.59,10,9,2,28,10,36,0.14,8,Rain,227
2012-2-26,40,34,28,32,28,22,100,77,54,30.17,30.11,30.06,10,8,0,16,5,21,0.02,7,Fog-Snow,176
2012-2-27,37,31,25,31,27,21,100,85,69,30.17,30.10,30.03,10,8,1,8,4,12,0.01,6,Snow,135
2012-2-28,45,34,23,26,23,20,88,64,40,30.03,29.91,29.65,10,10,10,14,5,17,0.00,3,,99
2012-2-29,47,43,38,33,27,22,89,65,40,29.79,29.71,29.58,10,10,5,20,9,28,T,6,Snow,190